createdAt,value
2018-03-22T00:00:29.081Z,968.55
2018-03-22T00:01:29.047Z,968.49
2018-03-22T00:02:28.958Z,968.49
2018-03-22T00:03:28.914Z,968.43
2018-03-22T00:04:28.858Z,968.41
2018-03-22T00:05:28.798Z,968.43
2018-03-22T00:06:28.785Z,968.41
2018-03-22T00:07:28.701Z,968.42
2018-03-22T00:08:28.633Z,968.44
2018-03-22T00:09:28.580Z,968.41
2018-03-22T00:10:28.529Z,968.40
2018-03-22T00:11:28.504Z,968.37
2018-03-22T00:12:28.422Z,968.37
2018-03-22T00:13:28.375Z,968.42
2018-03-22T00:14:28.316Z,968.40
2018-03-22T00:15:28.255Z,968.43
2018-03-22T00:16:28.241Z,968.42
2018-03-22T00:17:28.151Z,968.37
2018-03-22T00:18:28.113Z,968.37
2018-03-22T00:19:28.043Z,968.37
2018-03-22T00:20:27.990Z,968.34
2018-03-22T00:21:27.968Z,968.35
2018-03-22T00:22:27.880Z,968.32
2018-03-22T00:23:27.827Z,968.30
2018-03-22T00:24:27.772Z,968.32
2018-03-22T00:25:27.739Z,968.26
2018-03-22T00:26:27.711Z,968.25
2018-03-22T00:27:27.613Z,968.23
2018-03-22T00:28:27.555Z,968.24
2018-03-22T00:29:27.499Z,968.22
2018-03-22T00:30:27.455Z,968.17
2018-03-22T00:31:27.433Z,968.19
2018-03-22T00:32:27.341Z,968.17
2018-03-22T00:33:27.285Z,968.14
2018-03-22T00:34:27.234Z,968.14
2018-03-22T00:35:27.178Z,968.11
2018-03-22T00:36:27.159Z,968.11
2018-03-22T00:37:27.085Z,968.08
2018-03-22T00:38:27.019Z,968.11
2018-03-22T00:39:26.968Z,968.12
2018-03-22T00:40:26.909Z,968.12
2018-03-22T00:41:26.896Z,968.08
2018-03-22T00:42:26.798Z,968.08
2018-03-22T00:43:26.752Z,968.07
2018-03-22T00:44:26.687Z,968.05
2018-03-22T00:45:26.640Z,968.07
2018-03-22T00:46:26.612Z,968.07
2018-03-22T00:47:26.534Z,968.08
2018-03-22T00:48:26.472Z,968.06
2018-03-22T00:49:26.420Z,968.02
2018-03-22T00:50:26.367Z,968.07
2018-03-22T00:51:26.345Z,968.03
2018-03-22T00:52:26.259Z,967.99
2018-03-22T00:53:26.206Z,967.98
2018-03-22T00:54:26.150Z,967.94
2018-03-22T00:55:26.096Z,967.95
2018-03-22T00:56:26.079Z,967.94
2018-03-22T00:57:25.995Z,967.88
2018-03-22T00:58:25.935Z,967.91
2018-03-22T00:59:25.885Z,967.93
2018-03-22T01:00:25.827Z,967.91
2018-03-22T01:01:25.806Z,967.90
2018-03-22T01:02:25.719Z,967.84
2018-03-22T01:03:25.667Z,967.82
2018-03-22T01:04:25.706Z,967.81
2018-03-22T01:05:25.558Z,967.80
2018-03-22T01:06:25.534Z,967.76
2018-03-22T01:07:25.447Z,967.76
2018-03-22T01:08:25.393Z,967.76
2018-03-22T01:09:25.355Z,967.71
2018-03-22T01:10:25.297Z,967.68
2018-03-22T01:11:25.276Z,967.64
2018-03-22T01:12:25.186Z,967.62
2018-03-22T01:13:25.124Z,967.59
2018-03-22T01:14:25.074Z,967.58
2018-03-22T01:15:25.023Z,967.56
2018-03-22T01:16:25.011Z,967.59
2018-03-22T01:17:24.907Z,967.60
2018-03-22T01:18:24.858Z,967.59
2018-03-22T01:19:24.809Z,967.58
2018-03-22T01:20:24.750Z,967.60
2018-03-22T01:21:24.726Z,967.59
2018-03-22T01:22:24.637Z,967.57
2018-03-22T01:23:24.595Z,967.54
2018-03-22T01:24:24.531Z,967.54
2018-03-22T01:25:24.483Z,967.52
2018-03-22T01:26:24.453Z,967.53
2018-03-22T01:27:24.365Z,967.51
2018-03-22T01:28:24.306Z,967.53
2018-03-22T01:29:24.260Z,967.54
2018-03-22T01:30:24.209Z,967.47
2018-03-22T01:31:24.189Z,967.49
2018-03-22T01:32:24.097Z,967.48
2018-03-22T01:33:24.041Z,967.50
2018-03-22T01:34:23.985Z,967.46
2018-03-22T01:35:23.930Z,967.45
2018-03-22T01:36:23.920Z,967.45
2018-03-22T01:37:23.824Z,967.43
2018-03-22T01:38:23.771Z,967.44
2018-03-22T01:39:23.716Z,967.46
2018-03-22T01:40:23.661Z,967.44
2018-03-22T01:41:23.641Z,967.43
2018-03-22T01:42:23.564Z,967.42
2018-03-22T01:43:23.500Z,967.42
2018-03-22T01:44:23.447Z,967.40
2018-03-22T01:45:23.387Z,967.42
2018-03-22T01:46:23.367Z,967.42
2018-03-22T01:47:23.284Z,967.40
2018-03-22T01:48:23.236Z,967.37
2018-03-22T01:49:23.176Z,967.34
2018-03-22T01:50:23.123Z,967.33
2018-03-22T01:51:23.162Z,967.30
2018-03-22T01:52:23.008Z,967.29
2018-03-22T01:53:22.953Z,967.31
2018-03-22T01:54:22.899Z,967.32
2018-03-22T01:55:22.847Z,967.26
2018-03-22T01:56:22.826Z,967.26
2018-03-22T01:57:22.743Z,967.26
2018-03-22T01:58:22.684Z,967.24
2018-03-22T01:59:22.638Z,967.23
2018-03-22T02:00:22.578Z,967.22
2018-03-22T02:01:22.557Z,967.19
2018-03-22T02:02:22.464Z,967.23
2018-03-22T02:03:22.415Z,967.21
2018-03-22T02:04:22.365Z,967.19
2018-03-22T02:05:22.311Z,967.20
2018-03-22T02:06:22.285Z,967.22
2018-03-22T02:07:22.206Z,967.14
2018-03-22T02:08:22.142Z,967.15
2018-03-22T02:09:22.099Z,967.14
2018-03-22T02:10:22.146Z,967.17
2018-03-22T02:11:22.014Z,967.13
2018-03-22T02:12:21.929Z,967.06
2018-03-22T02:13:21.868Z,967.10
2018-03-22T02:14:21.809Z,967.06
2018-03-22T02:15:21.775Z,967.08
2018-03-22T02:16:21.746Z,967.07
2018-03-22T02:17:21.649Z,967.09
2018-03-22T02:18:21.601Z,967.13
2018-03-22T02:19:21.546Z,967.12
2018-03-22T02:20:21.487Z,967.08
2018-03-22T02:21:21.474Z,967.08
2018-03-22T02:22:21.377Z,967.06
2018-03-22T02:23:21.330Z,967.05
2018-03-22T02:24:21.270Z,967.04
2018-03-22T02:25:21.216Z,967.05
2018-03-22T02:26:21.197Z,967.00
2018-03-22T02:27:21.119Z,967.04
2018-03-22T02:28:21.054Z,966.97
2018-03-22T02:29:21.000Z,966.98
2018-03-22T02:30:20.943Z,966.95
2018-03-22T02:31:20.974Z,966.97
2018-03-22T02:32:20.839Z,966.96
2018-03-22T02:33:20.776Z,966.96
2018-03-22T02:34:20.745Z,966.94
2018-03-22T02:35:20.671Z,966.97
2018-03-22T02:36:20.649Z,966.96
2018-03-22T02:37:20.560Z,966.90
2018-03-22T02:38:20.504Z,966.93
2018-03-22T02:39:20.454Z,966.92
2018-03-22T02:40:20.400Z,966.89
2018-03-22T02:41:20.374Z,966.92
2018-03-22T02:42:20.291Z,966.91
2018-03-22T02:43:20.237Z,966.90
2018-03-22T02:44:20.175Z,966.90
2018-03-22T02:45:20.134Z,966.91
2018-03-22T02:46:20.114Z,966.87
2018-03-22T02:47:20.024Z,966.86
2018-03-22T02:48:19.971Z,966.89
2018-03-22T02:49:19.910Z,966.86
2018-03-22T02:50:19.851Z,966.84
2018-03-22T02:51:19.836Z,966.82
2018-03-22T02:52:19.746Z,966.79
2018-03-22T02:53:19.689Z,966.80
2018-03-22T02:54:19.653Z,966.80
2018-03-22T02:55:19.587Z,966.82
2018-03-22T02:56:19.562Z,966.83
2018-03-22T02:57:19.482Z,966.84
2018-03-22T02:58:19.429Z,966.77
2018-03-22T02:59:19.378Z,966.79
2018-03-22T03:00:19.309Z,966.77
2018-03-22T03:01:19.295Z,966.77
2018-03-22T03:02:19.201Z,966.74
2018-03-22T03:03:19.167Z,966.75
2018-03-22T03:04:19.104Z,966.72
2018-03-22T03:05:19.036Z,966.72
2018-03-22T03:06:19.021Z,966.68
2018-03-22T03:07:18.928Z,966.68
2018-03-22T03:08:18.884Z,966.65
2018-03-22T03:09:18.835Z,966.63
2018-03-22T03:10:18.763Z,966.68
2018-03-22T03:11:18.765Z,966.67
2018-03-22T03:12:18.647Z,966.68
2018-03-22T03:13:18.601Z,966.66
2018-03-22T03:14:18.551Z,966.66
2018-03-22T03:15:18.482Z,966.66
2018-03-22T03:16:18.485Z,966.67
2018-03-22T03:17:18.381Z,966.64
2018-03-22T03:18:18.336Z,966.63
2018-03-22T03:19:18.282Z,966.63
2018-03-22T03:20:18.216Z,966.62
2018-03-22T03:21:18.197Z,966.63
2018-03-22T03:22:18.108Z,966.62
2018-03-22T03:23:18.052Z,966.65
2018-03-22T03:24:18.000Z,966.57
2018-03-22T03:25:17.961Z,966.60
2018-03-22T03:26:17.928Z,966.56
2018-03-22T03:27:17.833Z,966.53
2018-03-22T03:28:17.782Z,966.52
2018-03-22T03:29:17.727Z,966.50
2018-03-22T03:30:17.739Z,966.50
2018-03-22T03:31:17.649Z,966.50
2018-03-22T03:32:17.565Z,966.45
2018-03-22T03:33:17.510Z,966.45
2018-03-22T03:34:17.470Z,966.46
2018-03-22T03:35:17.406Z,966.40
2018-03-22T03:36:17.392Z,966.40
2018-03-22T03:37:17.290Z,966.39
2018-03-22T03:38:17.234Z,966.40
2018-03-22T03:39:17.179Z,966.40
2018-03-22T03:40:17.142Z,966.35
2018-03-22T03:41:17.175Z,966.37
2018-03-22T03:42:17.011Z,966.35
2018-03-22T03:43:16.971Z,966.35
2018-03-22T03:44:16.911Z,966.31
2018-03-22T03:45:16.846Z,966.32
2018-03-22T03:46:16.834Z,966.27
2018-03-22T03:47:16.741Z,966.29
2018-03-22T03:48:16.715Z,966.27
2018-03-22T03:49:16.631Z,966.30
2018-03-22T03:50:16.574Z,966.29
2018-03-22T03:51:16.566Z,966.28
2018-03-22T03:52:16.481Z,966.30
2018-03-22T03:53:16.408Z,966.25
2018-03-22T03:54:16.359Z,966.23
2018-03-22T03:55:16.314Z,966.23
2018-03-22T03:56:16.288Z,966.21
2018-03-22T03:57:16.199Z,966.17
2018-03-22T03:58:16.137Z,966.19
2018-03-22T03:59:16.075Z,966.18
2018-03-22T04:00:16.034Z,966.17
2018-03-22T04:01:16.032Z,966.14
2018-03-22T04:02:15.931Z,966.14
2018-03-22T04:03:15.874Z,966.11
2018-03-22T04:04:15.810Z,966.13
2018-03-22T04:05:15.754Z,966.07
2018-03-22T04:06:15.736Z,966.07
2018-03-22T04:07:15.647Z,966.09
2018-03-22T04:08:15.599Z,966.07
2018-03-22T04:09:15.537Z,966.02
2018-03-22T04:10:15.477Z,966.07
2018-03-22T04:11:15.463Z,966.03
2018-03-22T04:12:15.402Z,966.07
2018-03-22T04:13:15.313Z,966.08
2018-03-22T04:14:15.279Z,966.04
2018-03-22T04:15:15.215Z,966.06
2018-03-22T04:16:15.181Z,966.11
2018-03-22T04:17:15.111Z,966.03
2018-03-22T04:18:15.054Z,966.03
2018-03-22T04:19:15.017Z,965.97
2018-03-22T04:20:14.930Z,965.98
2018-03-22T04:21:14.914Z,966.00
2018-03-22T04:22:14.827Z,965.97
2018-03-22T04:23:14.767Z,965.96
2018-03-22T04:24:14.721Z,965.90
2018-03-22T04:25:14.661Z,965.90
2018-03-22T04:26:14.638Z,965.88
2018-03-22T04:27:14.557Z,965.86
2018-03-22T04:28:14.496Z,965.86
2018-03-22T04:29:14.450Z,965.89
2018-03-22T04:30:14.386Z,965.82
2018-03-22T04:31:14.369Z,965.78
2018-03-22T04:32:14.276Z,965.83
2018-03-22T04:33:14.223Z,965.80
2018-03-22T04:34:14.166Z,965.83
2018-03-22T04:35:14.110Z,965.86
2018-03-22T04:36:14.093Z,965.81
2018-03-22T04:37:14.002Z,965.80
2018-03-22T04:38:13.950Z,965.80
2018-03-22T04:39:13.906Z,965.79
2018-03-22T04:40:13.839Z,965.79
2018-03-22T04:41:13.818Z,965.77
2018-03-22T04:42:13.734Z,965.75
2018-03-22T04:43:13.683Z,965.78
2018-03-22T04:44:13.620Z,965.75
2018-03-22T04:45:13.564Z,965.78
2018-03-22T04:46:13.547Z,965.74
2018-03-22T04:47:13.460Z,965.71
2018-03-22T04:48:13.402Z,965.69
2018-03-22T04:49:13.344Z,965.67
2018-03-22T04:50:13.291Z,965.70
2018-03-22T04:51:13.264Z,965.67
2018-03-22T04:52:13.203Z,965.68
2018-03-22T04:53:13.123Z,965.68
2018-03-22T04:54:13.071Z,965.69
2018-03-22T04:55:13.017Z,965.69
2018-03-22T04:56:13.001Z,965.65
2018-03-22T04:57:12.904Z,965.63
2018-03-22T04:58:12.874Z,965.61
2018-03-22T04:59:12.834Z,965.58
2018-03-22T05:00:12.736Z,965.60
2018-03-22T05:01:12.718Z,965.56
2018-03-22T05:02:12.633Z,965.57
2018-03-22T05:03:12.583Z,965.61
2018-03-22T05:04:12.524Z,965.60
2018-03-22T05:05:12.470Z,965.60
2018-03-22T05:06:12.448Z,965.63
2018-03-22T05:07:12.359Z,965.62
2018-03-22T05:08:12.307Z,965.57
2018-03-22T05:09:12.246Z,965.54
2018-03-22T05:10:12.193Z,965.52
2018-03-22T05:11:12.171Z,965.53
2018-03-22T05:12:12.089Z,965.54
2018-03-22T05:13:12.027Z,965.52
2018-03-22T05:14:11.980Z,965.50
2018-03-22T05:15:11.932Z,965.49
2018-03-22T05:16:11.899Z,965.47
2018-03-22T05:17:11.809Z,965.54
2018-03-22T05:18:11.761Z,965.51
2018-03-22T05:19:11.703Z,965.51
2018-03-22T05:20:11.644Z,965.51
2018-03-22T05:21:11.630Z,965.53
2018-03-22T05:22:11.536Z,965.50
2018-03-22T05:23:11.483Z,965.42
2018-03-22T05:24:11.428Z,965.43
2018-03-22T05:25:11.381Z,965.40
2018-03-22T05:26:11.356Z,965.36
2018-03-22T05:27:11.263Z,965.38
2018-03-22T05:28:11.204Z,965.35
2018-03-22T05:29:11.153Z,965.31
2018-03-22T05:30:11.104Z,965.30
2018-03-22T05:31:11.676Z,965.29
2018-03-22T05:32:10.991Z,965.29
2018-03-22T05:34:42.974Z,965.29
2018-03-22T05:35:42.889Z,965.30
2018-03-22T05:36:42.875Z,965.30
2018-03-22T05:37:42.779Z,965.26
2018-03-22T05:38:42.734Z,965.26
2018-03-22T05:39:42.668Z,965.26
2018-03-22T05:40:42.613Z,965.27
2018-03-22T05:41:42.593Z,965.29
2018-03-22T05:42:42.508Z,965.26
2018-03-22T05:43:42.448Z,965.25
2018-03-22T05:44:42.394Z,965.28
2018-03-22T05:45:42.334Z,965.31
2018-03-22T05:46:42.321Z,965.32
2018-03-22T05:47:42.227Z,965.30
2018-03-22T05:48:42.178Z,965.30
2018-03-22T05:49:42.124Z,965.27
2018-03-22T05:50:42.073Z,965.35
2018-03-22T05:51:42.046Z,965.33
2018-03-22T05:52:41.973Z,965.38
2018-03-22T05:53:41.901Z,965.32
2018-03-22T05:54:41.848Z,965.34
2018-03-22T05:55:41.793Z,965.33
2018-03-22T05:56:41.776Z,965.33
2018-03-22T05:57:41.683Z,965.33
2018-03-22T05:58:41.634Z,965.29
2018-03-22T05:59:41.577Z,965.29
2018-03-22T06:00:41.520Z,965.30
2018-03-22T06:01:41.465Z,965.28
2018-03-22T06:02:41.412Z,965.25
2018-03-22T06:03:41.393Z,965.28
2018-03-22T06:04:41.315Z,965.31
2018-03-22T06:05:41.251Z,965.28
2018-03-22T06:06:41.192Z,965.31
2018-03-22T06:07:41.158Z,965.29
2018-03-22T06:08:41.090Z,965.30
2018-03-22T06:09:41.028Z,965.31
2018-03-22T06:10:40.978Z,965.30
2018-03-22T06:11:40.921Z,965.29
2018-03-22T06:12:40.906Z,965.29
2018-03-22T06:13:40.814Z,965.34
2018-03-22T06:14:40.767Z,965.31
2018-03-22T06:15:40.704Z,965.31
2018-03-22T06:16:40.652Z,965.31
2018-03-22T06:17:40.594Z,965.32
2018-03-22T06:18:40.543Z,965.24
2018-03-22T06:19:40.496Z,965.30
2018-03-22T06:20:40.433Z,965.29
2018-03-22T06:21:40.380Z,965.27
2018-03-22T06:22:40.328Z,965.28
2018-03-22T06:23:40.312Z,965.27
2018-03-22T06:24:40.217Z,965.27
2018-03-22T06:25:40.167Z,965.27
2018-03-22T06:26:40.108Z,965.24
2018-03-22T06:27:40.058Z,965.19
2018-03-22T06:28:40.016Z,965.20
2018-03-22T06:29:40.043Z,965.19
2018-03-22T06:30:39.910Z,965.21
2018-03-22T06:31:39.843Z,965.23
2018-03-22T06:32:39.807Z,965.21
2018-03-22T06:33:39.751Z,965.20
2018-03-22T06:34:39.694Z,965.24
2018-03-22T06:35:39.629Z,965.24
2018-03-22T06:36:39.605Z,965.21
2018-03-22T06:37:40.048Z,965.22
2018-03-22T06:38:39.470Z,965.16
2018-03-22T06:39:39.428Z,965.18
2018-03-22T06:40:39.392Z,965.18
2018-03-22T06:41:39.317Z,965.15
2018-03-22T06:42:39.263Z,965.17
2018-03-22T06:43:39.203Z,965.12
2018-03-22T06:44:39.186Z,965.14
2018-03-22T06:45:39.152Z,965.13
2018-03-22T06:46:40.060Z,965.11
2018-03-22T06:47:39.044Z,965.13
2018-03-22T06:48:38.948Z,965.15
2018-03-22T06:49:38.892Z,965.17
2018-03-22T06:50:38.848Z,965.18
2018-03-22T06:51:38.785Z,965.18
2018-03-22T06:52:38.740Z,965.15
2018-03-22T06:53:38.690Z,965.16
2018-03-22T06:54:38.649Z,965.14
2018-03-22T06:55:38.682Z,965.11
2018-03-22T06:56:38.529Z,965.15
2018-03-22T06:57:38.511Z,965.16
2018-03-22T06:58:38.430Z,965.11
2018-03-22T06:59:38.444Z,965.11
2018-03-22T07:00:53.069Z,965.11
2018-03-22T07:01:38.318Z,965.19
2018-03-22T07:02:38.260Z,965.16
2018-03-22T07:03:38.252Z,965.16
2018-03-22T07:04:38.133Z,965.13
2018-03-22T07:07:10.238Z,965.11
2018-03-22T07:08:10.041Z,965.05
2018-03-22T07:09:09.988Z,965.07
2018-03-22T07:10:09.944Z,965.09
2018-03-22T07:11:09.894Z,965.06
2018-03-22T07:12:09.907Z,965.05
2018-03-22T07:13:09.816Z,965.00
2018-03-22T07:14:09.728Z,965.05
2018-03-22T07:15:09.692Z,965.01
2018-03-22T07:16:09.645Z,965.03
2018-03-22T07:17:09.626Z,964.99
2018-03-22T07:18:09.544Z,964.97
2018-03-22T07:19:09.568Z,964.95
2018-03-22T07:20:12.179Z,964.95
2018-03-22T07:21:09.476Z,964.96
2018-03-22T07:22:09.319Z,964.92
2018-03-22T07:23:09.276Z,964.94
2018-03-22T07:24:09.294Z,964.89
2018-03-22T07:25:09.348Z,964.87
2018-03-22T07:26:09.132Z,964.87
2018-03-22T07:27:09.111Z,964.86
2018-03-22T07:28:09.099Z,964.85
2018-03-22T07:29:08.998Z,964.86
2018-03-22T07:30:08.953Z,964.87
2018-03-22T07:31:08.981Z,964.87
2018-03-22T07:32:08.825Z,964.94
2018-03-22T07:33:08.817Z,964.90
2018-03-22T07:34:08.722Z,964.92
2018-03-22T07:35:08.717Z,964.94
2018-03-22T07:36:08.752Z,964.86
2018-03-22T07:37:08.618Z,964.89
2018-03-22T07:38:08.558Z,964.86
2018-03-22T07:39:08.476Z,964.88
2018-03-22T07:40:08.455Z,964.91
2018-03-22T07:41:08.446Z,964.92
2018-03-22T07:42:08.369Z,964.94
2018-03-22T07:43:08.356Z,964.94
2018-03-22T07:44:08.260Z,964.91
2018-03-22T07:45:08.178Z,964.88
2018-03-22T07:46:08.150Z,964.91
2018-03-22T07:47:08.093Z,964.89
2018-03-22T07:48:08.023Z,964.87
2018-03-22T07:49:07.982Z,964.87
2018-03-22T07:50:07.974Z,964.91
2018-03-22T07:51:07.918Z,964.89
2018-03-22T07:52:07.862Z,964.88
2018-03-22T07:53:07.819Z,964.92
2018-03-22T07:54:07.854Z,964.92
2018-03-22T07:55:07.707Z,964.93
2018-03-22T07:56:07.645Z,964.92
2018-03-22T07:57:07.591Z,964.91
2018-03-22T07:58:07.533Z,964.89
2018-03-22T07:59:07.499Z,964.93
2018-03-22T08:00:07.432Z,964.84
2018-03-22T08:01:07.383Z,964.85
2018-03-22T08:02:07.333Z,964.80
2018-03-22T08:03:07.297Z,964.85
2018-03-22T08:04:07.238Z,964.86
2018-03-22T08:05:07.461Z,964.85
2018-03-22T08:06:07.158Z,964.79
2018-03-22T08:07:07.137Z,964.78
2018-03-22T08:08:07.082Z,964.78
2018-03-22T08:09:06.991Z,964.79
2018-03-22T08:10:06.951Z,964.77
2018-03-22T08:11:06.886Z,964.82
2018-03-22T08:12:06.835Z,964.74
2018-03-22T08:13:06.798Z,964.74
2018-03-22T08:14:06.813Z,964.74
2018-03-22T08:15:06.722Z,964.70
2018-03-22T08:16:06.689Z,964.70
2018-03-22T08:17:06.656Z,964.71
2018-03-22T08:18:06.580Z,964.75
2018-03-22T08:19:06.508Z,964.72
2018-03-22T08:20:06.470Z,964.71
2018-03-22T08:21:06.391Z,964.70
2018-03-22T08:22:06.341Z,964.70
2018-03-22T08:23:06.292Z,964.65
2018-03-22T08:24:06.251Z,964.68
2018-03-22T08:25:06.197Z,964.71
2018-03-22T08:26:06.147Z,964.72
2018-03-22T08:27:06.096Z,964.75
2018-03-22T08:28:06.056Z,964.75
2018-03-22T08:29:05.994Z,964.78
2018-03-22T08:30:05.946Z,964.77
2018-03-22T08:31:05.911Z,964.76
2018-03-22T08:32:05.883Z,964.76
2018-03-22T08:33:05.802Z,964.74
2018-03-22T08:34:05.797Z,964.73
2018-03-22T08:35:05.774Z,964.72
2018-03-22T08:36:05.706Z,964.74
2018-03-22T08:37:05.609Z,964.76
2018-03-22T08:38:05.578Z,964.72
2018-03-22T08:39:05.569Z,964.75
2018-03-22T08:40:05.464Z,964.77
2018-03-22T08:41:05.414Z,964.76
2018-03-22T08:42:05.411Z,964.70
2018-03-22T08:43:05.304Z,964.73
2018-03-22T08:44:05.319Z,964.76
2018-03-22T08:45:05.210Z,964.71
2018-03-22T08:46:05.234Z,964.73
2018-03-22T08:47:05.131Z,964.70
2018-03-22T08:48:05.134Z,964.75
2018-03-22T08:49:05.094Z,964.72
2018-03-22T08:50:04.969Z,964.66
2018-03-22T08:51:04.926Z,964.64
2018-03-22T08:52:04.882Z,964.63
2018-03-22T08:53:04.826Z,964.66
2018-03-22T08:54:04.783Z,964.66
2018-03-22T08:55:04.744Z,964.64
2018-03-22T08:56:04.661Z,964.60
2018-03-22T08:57:04.650Z,964.57
2018-03-22T08:58:04.570Z,964.53
2018-03-22T08:59:04.550Z,964.54
2018-03-22T09:00:04.489Z,964.53
2018-03-22T09:01:04.459Z,964.55
2018-03-22T09:02:04.385Z,964.50
2018-03-22T09:03:04.349Z,964.51
2018-03-22T09:04:04.304Z,964.50
2018-03-22T09:05:04.237Z,964.43
2018-03-22T09:06:04.185Z,964.40
2018-03-22T09:07:04.182Z,964.42
2018-03-22T09:08:04.152Z,964.35
2018-03-22T09:09:04.077Z,964.30
2018-03-22T09:10:04.003Z,964.28
2018-03-22T09:11:03.946Z,964.29
2018-03-22T09:12:03.964Z,964.27
2018-03-22T09:13:03.875Z,964.26
2018-03-22T09:14:03.807Z,964.26
2018-03-22T09:15:03.806Z,964.25
2018-03-22T09:16:03.774Z,964.23
2018-03-22T09:17:03.671Z,964.23
2018-03-22T09:19:46.357Z,964.14
